createdAt,value
2023-09-29T00:00:18.520Z,1.10
2023-09-29T00:02:46.866Z,1.10
2023-09-29T00:05:15.464Z,1.42
2023-09-29T00:07:44.020Z,1.15
2023-09-29T00:10:14.528Z,1.10
2023-09-29T00:12:43.176Z,1.00
2023-09-29T00:15:10.370Z,1.20
2023-09-29T00:17:37.557Z,1.30
2023-09-29T00:20:21.103Z,1.33
2023-09-29T00:22:48.227Z,1.17
2023-09-29T00:25:15.253Z,1.27
2023-09-29T00:30:11.376Z,0.90
2023-09-29T00:32:38.280Z,0.98
2023-09-29T00:37:32.782Z,1.20
2023-09-29T00:39:59.547Z,1.20
2023-09-29T00:42:26.456Z,1.40
2023-09-29T00:47:21.412Z,1.20
2023-09-29T00:49:50.048Z,1.27
2023-09-29T00:52:18.393Z,1.27
2023-09-29T00:54:47.388Z,1.40
2023-09-29T00:57:14.990Z,1.13
2023-09-29T00:59:42.648Z,1.13
2023-09-29T01:02:11.866Z,1.05
2023-09-29T01:04:40.136Z,1.30
2023-09-29T01:07:08.418Z,0.98
2023-09-29T01:09:35.231Z,1.05
2023-09-29T01:12:01.891Z,1.20
2023-09-29T01:14:28.709Z,1.40
2023-09-29T01:16:55.528Z,1.20
2023-09-29T01:19:22.269Z,1.10
2023-09-29T01:21:49.136Z,1.33
2023-09-29T01:24:15.957Z,1.23
2023-09-29T01:26:46.093Z,1.20
2023-09-29T01:29:12.954Z,1.25
2023-09-29T01:31:40.434Z,1.15
2023-09-29T01:34:07.277Z,1.08
2023-09-29T01:36:34.420Z,1.08
2023-09-29T01:39:01.344Z,1.10
2023-09-29T01:43:55.256Z,1.05
2023-09-29T01:46:21.972Z,0.93
2023-09-29T01:48:48.815Z,1.20
2023-09-29T01:53:42.122Z,0.75
2023-09-29T01:56:09.192Z,1.00
2023-09-29T01:58:36.613Z,1.10
2023-09-29T02:01:03.292Z,1.50
2023-09-29T02:03:31.496Z,1.08
2023-09-29T02:05:58.967Z,0.82
2023-09-29T02:08:26.962Z,1.40
2023-09-29T02:10:54.028Z,1.25
2023-09-29T02:13:21.034Z,1.15
2023-09-29T02:15:47.725Z,0.98
2023-09-29T02:18:14.825Z,1.05
2023-09-29T02:20:48.273Z,1.17
2023-09-29T02:23:15.902Z,1.10
2023-09-29T02:25:43.455Z,1.38
2023-09-29T02:28:11.197Z,1.20
2023-09-29T02:30:38.145Z,0.90
2023-09-29T02:35:32.202Z,1.20
2023-09-29T02:37:59.254Z,0.90
2023-09-29T02:40:25.960Z,0.90
2023-09-29T02:42:52.829Z,1.20
2023-09-29T02:45:19.528Z,1.20
2023-09-29T02:47:48.318Z,1.42
2023-09-29T02:50:15.696Z,1.30
2023-09-29T02:52:43.546Z,1.05
2023-09-29T02:55:14.367Z,1.40
2023-09-29T02:57:43.059Z,1.60
2023-09-29T03:00:19.823Z,0.95
2023-09-29T03:02:46.855Z,1.15
2023-09-29T03:05:17.003Z,1.25
2023-09-29T03:07:44.529Z,0.80
2023-09-29T03:10:17.766Z,0.90
2023-09-29T03:12:46.137Z,1.33
2023-09-29T03:15:16.951Z,0.93
2023-09-29T03:17:45.822Z,1.48
2023-09-29T03:20:13.253Z,0.82
2023-09-29T03:22:41.574Z,0.73
2023-09-29T03:25:10.960Z,1.30
2023-09-29T03:27:38.237Z,1.20
2023-09-29T03:30:09.800Z,0.90
2023-09-29T03:32:36.737Z,0.93
2023-09-29T03:37:40.801Z,1.10
2023-09-29T03:40:09.933Z,1.00
2023-09-29T03:42:37.893Z,1.20
2023-09-29T03:45:07.103Z,1.30
2023-09-29T03:47:35.515Z,0.90
2023-09-29T03:50:03.175Z,1.40
2023-09-29T03:52:33.459Z,1.20
2023-09-29T03:55:00.411Z,1.08
2023-09-29T03:57:27.152Z,0.75
2023-09-29T03:59:53.899Z,1.38
2023-09-29T04:02:21.816Z,1.17
2023-09-29T04:04:48.808Z,1.17
2023-09-29T04:09:43.533Z,0.98
2023-09-29T04:12:10.334Z,1.02
2023-09-29T04:14:37.046Z,0.77
2023-09-29T04:17:05.901Z,1.30
2023-09-29T04:19:33.610Z,1.17
2023-09-29T04:22:01.228Z,1.58
2023-09-29T04:24:28.444Z,1.13
2023-09-29T04:26:55.193Z,1.23
2023-09-29T04:29:22.090Z,1.38
2023-09-29T04:31:48.842Z,1.58
2023-09-29T04:34:15.491Z,1.30
2023-09-29T04:36:43.738Z,1.67
2023-09-29T04:39:10.769Z,1.77
2023-09-29T04:41:38.903Z,1.33
2023-09-29T04:44:06.897Z,1.67
2023-09-29T04:46:35.408Z,1.55
2023-09-29T04:49:05.129Z,1.08
2023-09-29T04:51:35.131Z,1.23
2023-09-29T04:54:01.872Z,1.30
2023-09-29T04:56:28.601Z,1.13
2023-09-29T04:58:55.650Z,1.30
2023-09-29T05:01:24.956Z,1.08
2023-09-29T05:03:54.645Z,1.58
2023-09-29T05:06:25.226Z,1.30
2023-09-29T05:08:52.672Z,1.70
2023-09-29T05:11:23.961Z,1.58
2023-09-29T05:13:51.874Z,1.60
2023-09-29T05:16:18.953Z,1.88
2023-09-29T05:18:46.380Z,1.55
2023-09-29T05:21:13.190Z,1.42
2023-09-29T05:23:40.082Z,1.95
2023-09-29T05:26:08.932Z,1.30
2023-09-29T05:28:36.437Z,1.75
2023-09-29T05:31:05.015Z,1.40
2023-09-29T05:33:32.648Z,1.35
2023-09-29T05:36:00.257Z,1.42
2023-09-29T05:38:27.099Z,1.48
2023-09-29T05:40:53.806Z,1.35
2023-09-29T05:43:20.960Z,1.48
2023-09-29T05:45:48.721Z,1.33
2023-09-29T05:48:16.439Z,1.50
2023-09-29T05:50:43.678Z,1.13
2023-09-29T05:53:11.418Z,1.50
2023-09-29T05:55:39.553Z,1.75
2023-09-29T05:58:06.515Z,1.63
2023-09-29T06:03:03.428Z,1.67
2023-09-29T06:05:30.706Z,1.70
2023-09-29T06:07:58.884Z,2.00
2023-09-29T06:10:26.410Z,1.42
2023-09-29T06:12:53.196Z,1.58
2023-09-29T06:15:20.486Z,1.75
2023-09-29T06:17:47.462Z,1.85
2023-09-29T06:20:14.293Z,1.75
2023-09-29T06:22:41.082Z,1.80
2023-09-29T06:25:08.025Z,1.63
2023-09-29T06:30:01.343Z,1.90
2023-09-29T06:32:28.142Z,1.70
2023-09-29T06:34:54.948Z,2.35
2023-09-29T06:37:21.775Z,1.52
2023-09-29T06:39:48.456Z,1.80
2023-09-29T06:42:15.218Z,1.95
2023-09-29T06:44:42.140Z,1.70
2023-09-29T06:47:08.883Z,2.10
2023-09-29T06:49:35.615Z,1.80
2023-09-29T06:52:02.324Z,1.33
2023-09-29T06:54:29.210Z,1.90
2023-09-29T06:59:22.652Z,1.60
2023-09-29T07:01:49.472Z,1.80
2023-09-29T07:06:43.345Z,2.17
2023-09-29T07:11:41.357Z,1.70
2023-09-29T07:14:08.141Z,1.23
2023-09-29T07:16:34.850Z,1.60
2023-09-29T07:21:28.277Z,1.70
2023-09-29T07:26:21.944Z,1.95
2023-09-29T07:28:49.210Z,1.90
2023-09-29T07:31:15.905Z,1.90
2023-09-29T07:33:42.728Z,2.20
2023-09-29T07:36:09.459Z,2.13
2023-09-29T07:38:36.231Z,2.15
2023-09-29T07:41:06.017Z,2.20
2023-09-29T07:43:32.666Z,2.45
2023-09-29T07:45:59.355Z,2.58
2023-09-29T07:48:27.012Z,2.30
2023-09-29T07:50:53.907Z,2.78
2023-09-29T07:53:20.653Z,2.88
2023-09-29T07:55:47.313Z,2.33
2023-09-29T07:58:13.981Z,2.50
2023-09-29T08:00:40.689Z,2.70
2023-09-29T08:03:07.537Z,2.40
2023-09-29T08:05:34.366Z,2.60
2023-09-29T08:08:01.119Z,2.63
2023-09-29T08:10:27.778Z,2.55
2023-09-29T08:12:55.611Z,2.20
2023-09-29T08:15:23.222Z,2.70
2023-09-29T08:17:50.394Z,2.80
2023-09-29T08:20:18.512Z,2.55
2023-09-29T08:22:47.946Z,2.53
2023-09-29T08:25:15.798Z,2.65
2023-09-29T08:27:43.567Z,2.40
2023-09-29T08:30:11.758Z,2.60
2023-09-29T08:32:40.080Z,2.50
2023-09-29T08:35:07.388Z,2.75
2023-09-29T08:37:34.320Z,2.90
2023-09-29T08:40:01.053Z,2.92
2023-09-29T08:42:39.374Z,3.00
2023-09-29T08:45:11.500Z,3.75
2023-09-29T08:47:39.686Z,2.75
2023-09-29T08:50:10.823Z,2.58
2023-09-29T08:52:38.108Z,3.10
2023-09-29T08:55:05.157Z,3.10
2023-09-29T08:57:32.424Z,2.50
2023-09-29T09:00:01.592Z,3.20
2023-09-29T09:02:28.751Z,2.70
2023-09-29T09:04:55.508Z,3.00
2023-09-29T09:07:22.748Z,2.88
2023-09-29T09:09:55.066Z,2.45
2023-09-29T09:12:35.572Z,2.80
2023-09-29T09:15:08.703Z,2.50
2023-09-29T09:17:37.830Z,3.03
2023-09-29T09:20:05.254Z,2.88
2023-09-29T09:22:46.336Z,2.47
2023-09-29T09:25:16.276Z,3.17
2023-09-29T09:27:44.914Z,3.20
2023-09-29T09:30:25.949Z,2.70
2023-09-29T09:32:52.978Z,3.05
2023-09-29T09:35:30.517Z,2.60
2023-09-29T09:37:58.567Z,3.28
2023-09-29T09:40:26.386Z,3.05
2023-09-29T09:42:54.859Z,2.90
2023-09-29T09:45:30.609Z,2.95
2023-09-29T09:48:01.233Z,2.75
2023-09-29T09:50:32.086Z,2.75
2023-09-29T09:53:01.222Z,3.35
2023-09-29T09:56:00.940Z,3.10
2023-09-29T09:58:28.805Z,3.03
2023-09-29T10:00:57.039Z,2.63
2023-09-29T10:03:26.149Z,3.00
2023-09-29T10:05:54.824Z,2.78
2023-09-29T10:08:33.096Z,2.90
2023-09-29T10:11:13.459Z,2.92
2023-09-29T10:13:46.422Z,3.05
2023-09-29T10:16:24.390Z,2.95
2023-09-29T10:19:00.658Z,2.80
2023-09-29T10:21:40.942Z,3.28
2023-09-29T10:24:08.222Z,2.80
2023-09-29T10:26:50.537Z,3.63
2023-09-29T10:29:30.290Z,2.97
2023-09-29T10:32:15.177Z,3.15
2023-09-29T10:34:42.371Z,2.45
2023-09-29T10:37:12.464Z,3.17
2023-09-29T10:39:40.556Z,2.92
2023-09-29T10:42:15.071Z,2.92
2023-09-29T10:44:54.310Z,2.65
2023-09-29T10:47:50.579Z,2.80
2023-09-29T10:50:17.423Z,3.28
2023-09-29T10:52:44.250Z,2.95
2023-09-29T10:55:13.975Z,2.70
2023-09-29T10:57:43.417Z,3.03
2023-09-29T11:00:10.958Z,2.58
2023-09-29T11:02:38.569Z,2.95
2023-09-29T11:05:11.353Z,3.00
2023-09-29T11:07:52.428Z,3.03
2023-09-29T11:10:20.191Z,2.80
2023-09-29T11:12:50.095Z,3.30
2023-09-29T11:15:17.955Z,2.97
2023-09-29T11:17:46.568Z,2.95
2023-09-29T11:20:23.058Z,3.50
2023-09-29T11:23:02.404Z,3.10
2023-09-29T11:25:29.127Z,3.03
2023-09-29T11:27:57.216Z,2.78
2023-09-29T11:30:26.186Z,3.28
2023-09-29T11:32:54.153Z,3.17
2023-09-29T11:35:22.672Z,3.13
2023-09-29T11:37:49.400Z,2.95
2023-09-29T11:40:17.777Z,3.15
2023-09-29T11:42:46.547Z,2.67
2023-09-29T11:45:13.654Z,3.47
2023-09-29T11:47:41.888Z,2.72
2023-09-29T11:50:10.197Z,3.00
2023-09-29T11:52:40.769Z,2.90
2023-09-29T11:55:10.169Z,2.75
2023-09-29T11:57:38.535Z,2.97
2023-09-29T12:00:10.275Z,2.47
2023-09-29T12:02:37.966Z,2.90
2023-09-29T12:05:05.650Z,2.72
2023-09-29T12:07:33.286Z,2.50
2023-09-29T12:10:00.456Z,3.83
2023-09-29T12:12:28.293Z,2.35
2023-09-29T12:14:55.106Z,2.75
2023-09-29T12:17:21.964Z,2.97
2023-09-29T12:19:48.667Z,2.47
2023-09-29T12:22:15.419Z,2.85
2023-09-29T12:24:42.117Z,2.60
2023-09-29T12:27:11.753Z,3.13
2023-09-29T12:29:38.463Z,2.58
2023-09-29T12:32:05.183Z,2.97
2023-09-29T12:34:33.860Z,3.20
2023-09-29T12:37:01.063Z,3.45
2023-09-29T12:39:28.006Z,2.53
2023-09-29T12:41:54.967Z,2.78
2023-09-29T12:44:21.814Z,3.15
2023-09-29T12:46:48.474Z,2.85
2023-09-29T12:49:15.211Z,2.95
2023-09-29T12:51:53.609Z,3.17
2023-09-29T12:54:26.635Z,2.70
2023-09-29T12:57:01.338Z,2.45
2023-09-29T12:59:30.919Z,2.50
2023-09-29T13:01:57.706Z,2.25
2023-09-29T13:04:27.715Z,2.80
2023-09-29T13:06:54.462Z,2.92
2023-09-29T13:09:22.178Z,2.70
2023-09-29T13:11:49.916Z,2.60
2023-09-29T13:14:16.604Z,2.83
2023-09-29T13:16:43.755Z,2.53
2023-09-29T13:19:10.804Z,2.25
2023-09-29T13:21:37.537Z,2.50
2023-09-29T13:24:04.853Z,2.30
2023-09-29T13:26:31.670Z,2.17
2023-09-29T13:28:58.435Z,2.15
2023-09-29T13:31:25.097Z,2.03
2023-09-29T13:33:54.831Z,2.05
2023-09-29T13:36:21.784Z,2.20
2023-09-29T13:38:49.420Z,2.45
2023-09-29T13:41:16.142Z,1.98
2023-09-29T13:43:44.406Z,2.05
2023-09-29T13:46:11.148Z,2.00
2023-09-29T13:48:38.776Z,2.17
2023-09-29T13:51:07.501Z,2.15
2023-09-29T13:53:35.667Z,2.08
2023-09-29T13:56:07.159Z,1.90
2023-09-29T13:58:34.327Z,2.30
2023-09-29T14:01:01.242Z,2.35
2023-09-29T14:03:28.029Z,2.40
2023-09-29T14:05:55.298Z,2.20
2023-09-29T14:08:22.249Z,2.00
2023-09-29T14:10:49.131Z,1.98
2023-09-29T14:13:17.331Z,2.25
2023-09-29T14:15:44.024Z,2.10
2023-09-29T14:18:10.810Z,1.70
2023-09-29T14:20:38.283Z,1.58
2023-09-29T14:23:05.752Z,2.22
2023-09-29T14:25:32.481Z,2.10
2023-09-29T14:27:59.228Z,2.13
2023-09-29T14:30:26.220Z,2.20
2023-09-29T14:32:54.989Z,2.20
2023-09-29T14:35:22.693Z,1.92
2023-09-29T14:37:55.574Z,2.13
2023-09-29T14:40:22.682Z,2.15
2023-09-29T14:42:49.865Z,2.03
2023-09-29T14:45:16.526Z,2.22
2023-09-29T14:47:43.258Z,2.13
2023-09-29T14:50:10.388Z,2.10
2023-09-29T14:52:37.129Z,1.88
2023-09-29T14:55:07.171Z,1.95
2023-09-29T14:57:34.247Z,1.90
2023-09-29T15:00:01.946Z,1.60
2023-09-29T15:02:28.789Z,2.03
2023-09-29T15:04:57.334Z,1.80
2023-09-29T15:07:26.145Z,1.90
2023-09-29T15:09:53.221Z,2.20
2023-09-29T15:12:21.915Z,1.80
2023-09-29T15:14:50.486Z,1.80
2023-09-29T15:17:17.181Z,1.23
2023-09-29T15:19:44.350Z,1.48
2023-09-29T15:22:11.374Z,1.67
2023-09-29T15:24:41.131Z,1.55
2023-09-29T15:27:07.862Z,1.38
2023-09-29T15:29:34.561Z,1.13
2023-09-29T15:32:01.220Z,1.10
2023-09-29T15:34:28.018Z,1.10
2023-09-29T15:36:54.746Z,1.00
2023-09-29T15:39:21.514Z,1.27
2023-09-29T15:41:48.789Z,1.10
2023-09-29T15:44:16.886Z,1.05
2023-09-29T15:46:45.828Z,1.00
2023-09-29T15:49:15.603Z,1.20
2023-09-29T15:51:42.237Z,1.48
2023-09-29T15:54:08.955Z,1.17
2023-09-29T15:56:35.704Z,1.58
2023-09-29T15:59:02.984Z,1.38
2023-09-29T16:01:29.754Z,1.65
2023-09-29T16:03:56.748Z,1.10
2023-09-29T16:06:23.857Z,1.25
2023-09-29T16:08:50.575Z,1.80
2023-09-29T16:11:18.081Z,1.60
2023-09-29T16:13:45.322Z,1.30
2023-09-29T16:16:12.065Z,1.30
2023-09-29T16:18:38.853Z,1.30
2023-09-29T16:21:08.115Z,1.52
2023-09-29T16:23:34.837Z,1.15
2023-09-29T16:26:01.529Z,1.58
2023-09-29T16:28:28.186Z,1.02
2023-09-29T16:30:56.278Z,1.20
2023-09-29T16:33:23.109Z,1.13
2023-09-29T16:35:49.840Z,1.30
2023-09-29T16:38:16.581Z,1.10
2023-09-29T16:40:44.091Z,1.40
2023-09-29T16:43:12.047Z,1.45
2023-09-29T16:45:38.730Z,1.20
2023-09-29T16:48:05.782Z,1.30
2023-09-29T16:50:33.800Z,1.10
2023-09-29T16:53:00.544Z,1.20
2023-09-29T16:55:27.230Z,0.90
2023-09-29T16:57:53.910Z,1.25
2023-09-29T17:00:20.762Z,1.50
2023-09-29T17:02:47.543Z,1.35
2023-09-29T17:05:15.622Z,1.10
2023-09-29T17:07:42.280Z,1.30
2023-09-29T17:10:09.464Z,1.13
2023-09-29T17:12:36.211Z,0.95
2023-09-29T17:15:03.554Z,0.93
2023-09-29T17:17:30.533Z,0.95
2023-09-29T17:19:57.291Z,1.42
2023-09-29T17:22:24.918Z,1.00
2023-09-29T17:24:51.756Z,1.50
2023-09-29T17:27:19.278Z,1.10
2023-09-29T17:29:46.055Z,1.70
2023-09-29T17:32:12.883Z,1.08
2023-09-29T17:34:39.586Z,1.02
2023-09-29T17:37:06.295Z,1.20
2023-09-29T17:39:33.167Z,0.95
2023-09-29T17:42:02.331Z,0.93
2023-09-29T17:44:29.122Z,1.10
2023-09-29T17:46:55.811Z,1.10
2023-09-29T17:49:22.545Z,1.20
2023-09-29T17:51:49.267Z,1.20
2023-09-29T17:54:16.004Z,1.30
2023-09-29T17:56:42.729Z,1.15
2023-09-29T17:59:09.394Z,1.38
2023-09-29T18:01:36.076Z,1.38
2023-09-29T18:04:03.782Z,1.50
2023-09-29T18:06:32.459Z,1.83
2023-09-29T18:09:00.003Z,1.38
2023-09-29T18:11:28.007Z,1.33
2023-09-29T18:13:56.529Z,1.10
2023-09-29T18:16:23.523Z,1.40
2023-09-29T18:18:50.325Z,1.15
2023-09-29T18:21:17.315Z,1.20
2023-09-29T18:23:44.049Z,1.17
2023-09-29T18:28:37.352Z,1.20
2023-09-29T18:31:08.358Z,1.10
2023-09-29T18:33:35.440Z,0.93
2023-09-29T18:36:04.225Z,1.15
2023-09-29T18:38:31.301Z,1.20
2023-09-29T18:40:58.147Z,1.40
2023-09-29T18:43:24.805Z,0.90
2023-09-29T18:48:25.728Z,1.15
2023-09-29T18:50:53.294Z,1.30
2023-09-29T18:53:19.987Z,1.05
2023-09-29T18:58:13.650Z,1.08
2023-09-29T19:03:07.759Z,1.10
2023-09-29T19:05:36.256Z,0.93
2023-09-29T19:08:02.966Z,1.63
2023-09-29T19:12:56.158Z,1.23
2023-09-29T19:17:49.686Z,1.15
2023-09-29T19:20:16.786Z,1.20
2023-09-29T19:22:43.621Z,1.30
2023-09-29T19:25:10.461Z,1.00
2023-09-29T19:27:37.219Z,1.35
2023-09-29T19:30:04.584Z,1.65
2023-09-29T19:32:31.659Z,1.35
2023-09-29T19:34:58.337Z,1.30
2023-09-29T19:39:52.270Z,1.30
2023-09-29T19:44:49.399Z,1.30
2023-09-29T19:47:16.173Z,1.08
2023-09-29T19:49:42.813Z,1.10
2023-09-29T19:54:36.394Z,1.30
2023-09-29T19:57:03.175Z,0.98
2023-09-29T19:59:29.846Z,1.10
2023-09-29T20:04:23.261Z,0.85
2023-09-29T20:06:49.999Z,0.93
2023-09-29T20:11:44.930Z,0.70
2023-09-29T20:14:11.677Z,1.15
2023-09-29T20:16:38.421Z,0.88
2023-09-29T20:19:05.247Z,1.00
2023-09-29T20:21:32.467Z,0.70
2023-09-29T20:24:01.988Z,1.10
2023-09-29T20:26:34.808Z,0.93
2023-09-29T20:29:01.468Z,0.88
2023-09-29T20:33:57.214Z,0.85
2023-09-29T20:36:24.143Z,1.10
2023-09-29T20:38:50.803Z,1.00
2023-09-29T20:43:44.251Z,1.17
2023-09-29T20:46:11.316Z,0.90
2023-09-29T20:48:38.366Z,1.23
2023-09-29T20:51:12.682Z,1.20
2023-09-29T20:53:39.939Z,1.17
2023-09-29T20:56:10.737Z,1.10
2023-09-29T20:58:37.458Z,1.00
2023-09-29T21:01:04.268Z,0.70
2023-09-29T21:03:31.130Z,0.90
2023-09-29T21:05:57.955Z,1.25
2023-09-29T21:08:24.691Z,0.80
2023-09-29T21:10:55.116Z,0.60
2023-09-29T21:13:21.873Z,0.88
2023-09-29T21:18:15.507Z,0.70
2023-09-29T21:20:42.197Z,1.20
2023-09-29T21:25:35.623Z,1.45
2023-09-29T21:28:05.509Z,1.00
2023-09-29T21:30:32.343Z,1.00
2023-09-29T21:32:59.188Z,0.98
2023-09-29T21:35:25.953Z,1.42
2023-09-29T21:40:20.538Z,0.98
2023-09-29T21:42:47.296Z,1.00
2023-09-29T21:45:14.441Z,1.00
2023-09-29T21:47:41.273Z,0.88
2023-09-29T21:50:08.369Z,1.05
2023-09-29T21:52:35.460Z,0.82
2023-09-29T21:55:02.536Z,0.75
2023-09-29T21:57:29.392Z,0.77
2023-09-29T21:59:57.402Z,0.80
2023-09-29T22:02:24.455Z,0.80
2023-09-29T22:04:51.148Z,0.82
2023-09-29T22:09:44.579Z,1.25
2023-09-29T22:14:38.917Z,1.10
2023-09-29T22:17:05.599Z,0.93
2023-09-29T22:21:58.790Z,1.10
2023-09-29T22:26:52.353Z,1.08
2023-09-29T22:29:19.049Z,1.70
2023-09-29T22:34:12.488Z,1.75
2023-09-29T22:36:39.262Z,1.75
2023-09-29T22:39:08.069Z,2.15
2023-09-29T22:41:35.026Z,2.17
2023-09-29T22:44:02.477Z,1.83
2023-09-29T22:46:29.260Z,1.92
2023-09-29T22:48:56.306Z,2.13
2023-09-29T22:51:23.134Z,2.45
2023-09-29T22:53:49.823Z,2.15
2023-09-29T22:58:43.433Z,2.25
2023-09-29T23:01:10.430Z,2.03
2023-09-29T23:03:37.294Z,2.22
2023-09-29T23:06:04.393Z,1.92
2023-09-29T23:08:32.754Z,2.40
2023-09-29T23:10:59.839Z,2.13
2023-09-29T23:13:27.049Z,2.17
2023-09-29T23:15:54.103Z,2.40
2023-09-29T23:18:21.419Z,2.50
2023-09-29T23:20:48.314Z,2.50
2023-09-29T23:23:15.155Z,2.20
2023-09-29T23:25:42.993Z,2.20
2023-09-29T23:28:09.826Z,2.05
2023-09-29T23:30:37.059Z,2.00
2023-09-29T23:33:05.157Z,2.60
2023-09-29T23:35:32.257Z,2.30
2023-09-29T23:37:59.346Z,2.80
2023-09-29T23:40:26.094Z,2.47
2023-09-29T23:42:52.777Z,2.70
2023-09-29T23:47:48.275Z,2.30
2023-09-29T23:50:15.089Z,2.80
2023-09-29T23:52:41.780Z,2.10
2023-09-29T23:57:37.946Z,2.65
